createdAt,value
2023-02-03T00:00:56.125Z,-25.41
2023-02-03T00:06:02.618Z,-25.39
2023-02-03T00:11:07.070Z,-25.39
2023-02-03T00:16:11.725Z,-25.83
2023-02-03T00:21:15.842Z,-25.47
2023-02-03T00:26:20.067Z,-25.43
2023-02-03T00:31:25.928Z,-25.51
2023-02-03T00:36:29.969Z,-25.50
2023-02-03T00:41:33.785Z,-25.51
2023-02-03T00:46:37.870Z,-25.65
2023-02-03T00:51:41.761Z,-25.64
2023-02-03T00:56:45.631Z,-25.70
2023-02-03T01:01:51.607Z,-25.74
2023-02-03T01:06:58.115Z,-25.77
2023-02-03T01:12:02.205Z,-25.84
2023-02-03T01:17:06.285Z,-25.92
2023-02-03T01:22:10.178Z,-25.87
2023-02-03T01:27:14.057Z,-25.86
2023-02-03T01:32:19.179Z,-25.69
2023-02-03T01:37:23.117Z,-25.62
2023-02-03T01:42:27.115Z,-26.24
2023-02-03T01:47:34.113Z,-25.68
2023-02-03T01:52:40.827Z,-25.84
2023-02-03T01:57:53.058Z,-25.91
2023-02-03T02:03:03.256Z,-25.96
2023-02-03T02:08:10.395Z,-26.09
2023-02-03T02:13:15.941Z,-26.15
2023-02-03T02:18:59.237Z,-26.19
2023-02-03T02:24:19.252Z,-26.18
2023-02-03T02:29:41.785Z,-26.19
2023-02-03T02:35:00.189Z,-26.19
2023-02-03T02:40:38.129Z,-26.14
2023-02-03T02:45:52.383Z,-26.04
2023-02-03T02:50:58.977Z,-25.88
2023-02-03T02:56:07.866Z,-25.33
2023-02-03T03:01:12.773Z,-24.87
2023-02-03T03:06:42.339Z,-24.44
2023-02-03T03:11:52.757Z,-24.26
2023-02-03T03:17:03.237Z,-24.14
2023-02-03T03:22:12.977Z,-23.98
2023-02-03T03:27:20.068Z,-23.72
2023-02-03T03:32:24.934Z,-23.44
2023-02-03T03:37:43.558Z,-23.25
2023-02-03T03:43:25.739Z,-23.06
2023-02-03T03:48:40.317Z,-22.76
2023-02-03T03:53:46.579Z,-22.49
2023-02-03T03:58:53.508Z,-22.36
2023-02-03T04:04:03.671Z,-22.22
2023-02-03T04:09:07.749Z,-21.91
2023-02-03T04:14:12.338Z,-21.61
2023-02-03T04:19:16.226Z,-21.42
2023-02-03T04:24:20.466Z,-21.46
2023-02-03T04:29:24.197Z,-21.24
2023-02-03T04:34:28.105Z,-20.90
2023-02-03T04:39:31.987Z,-20.57
2023-02-03T04:44:35.850Z,-20.32
2023-02-03T04:49:39.725Z,-19.96
2023-02-03T04:54:43.653Z,-19.75
2023-02-03T04:59:47.537Z,-19.66
2023-02-03T05:04:51.521Z,-19.40
2023-02-03T05:09:55.249Z,-19.05
2023-02-03T05:14:59.243Z,-18.77
2023-02-03T05:20:03.226Z,-18.63
2023-02-03T05:25:08.019Z,-18.54
2023-02-03T05:30:12.668Z,-18.93
2023-02-03T05:35:16.615Z,-18.32
2023-02-03T05:40:39.240Z,-18.22
2023-02-03T05:45:43.117Z,-18.01
2023-02-03T05:50:47.181Z,-17.85
2023-02-03T05:55:51.140Z,-17.85
2023-02-03T06:00:54.930Z,-17.79
2023-02-03T06:05:59.761Z,-17.96
2023-02-03T06:11:03.612Z,-17.43
2023-02-03T06:16:07.826Z,-17.16
2023-02-03T06:21:12.149Z,-16.93
2023-02-03T06:26:16.169Z,-16.72
2023-02-03T06:31:20.259Z,-16.60
2023-02-03T06:36:24.346Z,-16.43
2023-02-03T06:41:32.072Z,-16.24
2023-02-03T06:46:35.942Z,-16.03
2023-02-03T06:51:40.097Z,-15.85
2023-02-03T06:56:43.906Z,-15.69
2023-02-03T07:01:48.779Z,-15.52
2023-02-03T07:06:52.767Z,-15.30
2023-02-03T07:11:56.534Z,-15.52
2023-02-03T07:17:00.558Z,-14.82
2023-02-03T07:22:04.396Z,-14.55
2023-02-03T07:27:08.767Z,-14.33
2023-02-03T07:32:13.071Z,-14.13
2023-02-03T07:37:16.882Z,-13.97
2023-02-03T07:42:20.774Z,-14.21
2023-02-03T07:47:27.561Z,-13.45
2023-02-03T07:52:31.479Z,-13.22
2023-02-03T07:57:35.390Z,-12.99
2023-02-03T08:02:40.548Z,-12.76
2023-02-03T08:07:44.605Z,-12.51
2023-02-03T08:12:48.853Z,-12.43
2023-02-03T08:17:54.960Z,-12.06
2023-02-03T08:22:58.774Z,-11.82
2023-02-03T08:28:02.959Z,-11.72
2023-02-03T08:33:06.857Z,-11.68
2023-02-03T08:38:10.765Z,-11.58
2023-02-03T08:43:14.610Z,-11.53
2023-02-03T08:48:18.627Z,-11.62
2023-02-03T08:53:22.879Z,-11.47
2023-02-03T08:58:26.629Z,-11.45
2023-02-03T09:03:30.537Z,-11.46
2023-02-03T09:08:34.305Z,-11.84
2023-02-03T09:13:39.620Z,-11.41
2023-02-03T09:18:44.499Z,-11.37
2023-02-03T09:23:48.707Z,-11.30
2023-02-03T09:28:53.925Z,-11.24
2023-02-03T09:33:59.747Z,-11.21
2023-02-03T09:39:03.455Z,-11.09
2023-02-03T09:44:34.544Z,-10.98
2023-02-03T09:49:43.804Z,-10.95
2023-02-03T09:55:17.221Z,-10.94
2023-02-03T10:00:44.297Z,-10.94
2023-02-03T10:05:48.104Z,-10.94
2023-02-03T10:11:13.343Z,-10.96
2023-02-03T10:16:36.893Z,-10.96
2023-02-03T10:21:46.095Z,-11.26
2023-02-03T10:26:51.305Z,-11.02
2023-02-03T10:31:58.908Z,-11.07
2023-02-03T10:37:21.504Z,-11.15
2023-02-03T10:42:25.557Z,-11.23
2023-02-03T10:47:47.030Z,-11.75
2023-02-03T10:52:50.999Z,-11.40
2023-02-03T10:57:56.263Z,-11.50
2023-02-03T11:03:17.918Z,-11.58
2023-02-03T11:08:31.515Z,-11.68
2023-02-03T11:13:36.064Z,-11.77
2023-02-03T11:18:48.808Z,-12.38
2023-02-03T11:24:21.928Z,-12.16
2023-02-03T11:29:29.131Z,-12.31
2023-02-03T11:34:38.842Z,-12.36
2023-02-03T11:39:45.738Z,-12.41
2023-02-03T11:44:51.863Z,-12.52
2023-02-03T11:50:27.071Z,-12.87
2023-02-03T11:55:54.057Z,-13.21
2023-02-03T12:01:28.588Z,-13.40
2023-02-03T12:06:54.534Z,-13.47
2023-02-03T12:12:10.789Z,-13.54
2023-02-03T12:17:27.975Z,-13.69
2023-02-03T12:22:45.881Z,-13.76
2023-02-03T12:28:08.198Z,-13.82
2023-02-03T12:33:23.710Z,-13.93
2023-02-03T12:38:46.007Z,-14.08
2023-02-03T12:43:54.209Z,-14.33
2023-02-03T12:49:03.555Z,-14.52
2023-02-03T12:54:26.157Z,-14.69
2023-02-03T12:59:32.970Z,-15.20
2023-02-03T13:04:50.049Z,-14.81
2023-02-03T13:10:06.544Z,-14.92
2023-02-03T13:15:57.282Z,-14.96
2023-02-03T13:21:01.620Z,-15.15
2023-02-03T13:26:39.109Z,-15.25
2023-02-03T13:31:53.850Z,-15.77
2023-02-03T13:37:36.277Z,-15.39
2023-02-03T13:42:47.133Z,-15.57
2023-02-03T13:47:54.051Z,-15.86
2023-02-03T13:53:03.845Z,-16.04
2023-02-03T13:58:21.225Z,-16.10
2023-02-03T14:03:27.905Z,-16.24
2023-02-03T14:08:32.622Z,-16.33
2023-02-03T14:13:36.669Z,-16.51
2023-02-03T14:18:49.492Z,-16.78
2023-02-03T14:24:01.213Z,-16.84
2023-02-03T14:29:06.913Z,-16.85
2023-02-03T14:34:16.507Z,-16.90
2023-02-03T14:39:26.349Z,-17.01
2023-02-03T14:44:57.040Z,-17.07
2023-02-03T14:50:16.290Z,-17.13
2023-02-03T14:55:41.721Z,-17.34
2023-02-03T15:00:45.746Z,-17.34
2023-02-03T15:05:55.999Z,-17.32
2023-02-03T15:11:01.405Z,-17.30
2023-02-03T15:16:06.676Z,-17.29
2023-02-03T15:21:21.327Z,-17.39
2023-02-03T15:26:27.559Z,-17.58
2023-02-03T15:31:43.034Z,-17.77
2023-02-03T15:36:55.354Z,-18.03
2023-02-03T15:42:01.028Z,-18.14
2023-02-03T15:47:17.213Z,-18.28
2023-02-03T15:52:26.036Z,-18.47
2023-02-03T15:57:35.424Z,-18.62
2023-02-03T16:02:47.209Z,-18.71
2023-02-03T16:07:51.217Z,-18.85
2023-02-03T16:12:55.355Z,-18.96
2023-02-03T16:17:59.392Z,-18.97
2023-02-03T16:23:30.648Z,-19.17
2023-02-03T16:28:53.555Z,-19.18
2023-02-03T16:34:15.763Z,-19.59
2023-02-03T16:39:38.481Z,-19.40
2023-02-03T16:45:00.843Z,-19.60
2023-02-03T16:50:37.442Z,-19.70
2023-02-03T16:55:45.616Z,-19.68
2023-02-03T17:00:52.817Z,-19.66
2023-02-03T17:05:58.055Z,-19.66
2023-02-03T17:11:12.478Z,-19.79
2023-02-03T17:16:22.022Z,-19.75
2023-02-03T17:21:28.995Z,-19.82
2023-02-03T17:26:34.987Z,-19.93
2023-02-03T17:31:38.839Z,-20.07
2023-02-03T17:36:42.833Z,-20.16
2023-02-03T17:57:52.905Z,-20.58
2023-02-03T18:02:57.738Z,-20.56
2023-02-03T18:08:09.004Z,-20.70
2023-02-03T18:13:24.258Z,-20.74
2023-02-03T18:18:28.794Z,-20.70
2023-02-03T18:23:34.201Z,-20.70
2023-02-03T18:28:39.615Z,-20.68
2023-02-03T18:33:46.270Z,-20.59
2023-02-03T18:38:51.165Z,-20.68
2023-02-03T18:43:55.776Z,-20.94
2023-02-03T18:49:00.172Z,-20.81
2023-02-03T18:54:04.753Z,-20.82
2023-02-03T18:59:11.729Z,-20.90
2023-02-03T19:04:15.596Z,-20.99
2023-02-03T19:09:21.454Z,-21.06
2023-02-03T19:14:25.981Z,-21.07
2023-02-03T19:19:29.886Z,-21.01
2023-02-03T19:24:33.996Z,-20.99
2023-02-03T19:29:39.795Z,-20.91
2023-02-03T19:34:43.892Z,-20.75
2023-02-03T19:39:53.137Z,-20.71
2023-02-03T19:44:57.100Z,-20.67
2023-02-03T19:50:01.056Z,-20.75
2023-02-03T19:55:06.877Z,-20.57
2023-02-03T20:00:11.567Z,-20.52
2023-02-03T20:05:20.340Z,-20.48
2023-02-03T20:10:26.868Z,-20.55
2023-02-03T20:15:30.765Z,-20.54
2023-02-03T20:20:35.846Z,-20.47
2023-02-03T20:25:39.997Z,-20.44
2023-02-03T20:30:44.123Z,-20.42
2023-02-03T20:35:48.054Z,-20.44
2023-02-03T20:40:52.717Z,-20.42
2023-02-03T20:45:56.672Z,-20.39
2023-02-03T20:51:00.533Z,-20.32
2023-02-03T20:56:14.650Z,-20.47
2023-02-03T21:01:23.261Z,-20.26
2023-02-03T21:06:28.457Z,-20.21
2023-02-03T21:11:32.396Z,-20.16
2023-02-03T21:16:39.963Z,-20.11
2023-02-03T21:21:44.732Z,-20.05
2023-02-03T21:26:49.908Z,-20.00
2023-02-03T21:31:55.659Z,-19.95
2023-02-03T21:37:09.013Z,-19.90
2023-02-03T21:42:41.719Z,-19.88
2023-02-03T21:47:47.478Z,-19.87
2023-02-03T21:52:51.379Z,-19.92
2023-02-03T21:57:55.543Z,-19.95
2023-02-03T22:03:01.975Z,-20.10
2023-02-03T22:08:20.877Z,-20.60
2023-02-03T22:13:24.650Z,-19.98
2023-02-03T22:18:28.537Z,-20.00
2023-02-03T22:24:01.154Z,-20.04
2023-02-03T22:29:06.201Z,-20.03
2023-02-03T22:34:10.240Z,-20.03
2023-02-03T22:39:14.952Z,-20.03
2023-02-03T22:44:19.461Z,-20.00
2023-02-03T22:49:23.342Z,-20.53
2023-02-03T22:54:27.026Z,-19.92
2023-02-03T22:59:30.956Z,-19.95
2023-02-03T23:04:34.861Z,-19.99
2023-02-03T23:09:40.151Z,-19.95
2023-02-03T23:14:44.209Z,-19.89
2023-02-03T23:19:48.044Z,-19.91
2023-02-03T23:24:51.945Z,-20.05
2023-02-03T23:29:56.061Z,-19.89
2023-02-03T23:35:19.073Z,-19.90
2023-02-03T23:40:23.918Z,-19.89
2023-02-03T23:45:27.787Z,-19.85
2023-02-03T23:50:31.878Z,-19.78
2023-02-03T23:55:36.960Z,-19.69
